sensor_id;sensor_type;location;lat;lon;timestamp;P1;durP1;ratioP1;P2;durP2;ratioP2
22841;SDS011;11587;47.064;15.444;2023-02-13T00:00:11;0.30;;;0.30;;
22841;SDS011;11587;47.064;15.444;2023-02-13T00:02:37;0.30;;;0.30;;
22841;SDS011;11587;47.064;15.444;2023-02-13T00:05:03;0.30;;;0.30;;
22841;SDS011;11587;47.064;15.444;2023-02-13T00:07:29;0.30;;;0.30;;
22841;SDS011;11587;47.064;15.444;2023-02-13T00:09:55;0.30;;;0.30;;
22841;SDS011;11587;47.064;15.444;2023-02-13T00:12:21;0.30;;;0.30;;
22841;SDS011;11587;47.064;15.444;2023-02-13T00:14:47;0.30;;;0.30;;
22841;SDS011;11587;47.064;15.444;2023-02-13T00:17:13;0.30;;;0.30;;
22841;SDS011;11587;47.064;15.444;2023-02-13T00:19:40;0.30;;;0.30;;
22841;SDS011;11587;47.064;15.444;2023-02-13T00:22:06;0.30;;;0.30;;
22841;SDS011;11587;47.064;15.444;2023-02-13T00:24:32;0.30;;;0.30;;
22841;SDS011;11587;47.064;15.444;2023-02-13T00:26:58;0.30;;;0.30;;
22841;SDS011;11587;47.064;15.444;2023-02-13T00:29:24;0.30;;;0.30;;
22841;SDS011;11587;47.064;15.444;2023-02-13T00:31:50;0.30;;;0.30;;
22841;SDS011;11587;47.064;15.444;2023-02-13T00:34:16;0.30;;;0.30;;
22841;SDS011;11587;47.064;15.444;2023-02-13T00:36:42;0.30;;;0.30;;
22841;SDS011;11587;47.064;15.444;2023-02-13T00:39:11;0.30;;;0.30;;
22841;SDS011;11587;47.064;15.444;2023-02-13T00:41:37;0.30;;;0.30;;
22841;SDS011;11587;47.064;15.444;2023-02-13T00:44:03;0.40;;;0.40;;
22841;SDS011;11587;47.064;15.444;2023-02-13T00:46:29;0.30;;;0.30;;
22841;SDS011;11587;47.064;15.444;2023-02-13T00:48:55;0.30;;;0.30;;
22841;SDS011;11587;47.064;15.444;2023-02-13T00:51:21;0.30;;;0.30;;
22841;SDS011;11587;47.064;15.444;2023-02-13T00:53:47;0.30;;;0.30;;
22841;SDS011;11587;47.064;15.444;2023-02-13T00:56:14;0.30;;;0.30;;
22841;SDS011;11587;47.064;15.444;2023-02-13T00:58:40;0.30;;;0.30;;
22841;SDS011;11587;47.064;15.444;2023-02-13T01:01:06;0.30;;;0.30;;
22841;SDS011;11587;47.064;15.444;2023-02-13T01:03:32;0.30;;;0.30;;
22841;SDS011;11587;47.064;15.444;2023-02-13T01:05:58;0.30;;;0.30;;
22841;SDS011;11587;47.064;15.444;2023-02-13T01:08:24;0.30;;;0.30;;
22841;SDS011;11587;47.064;15.444;2023-02-13T01:10:52;0.30;;;0.30;;
22841;SDS011;11587;47.064;15.444;2023-02-13T01:13:18;0.30;;;0.30;;
22841;SDS011;11587;47.064;15.444;2023-02-13T01:15:45;0.30;;;0.30;;
22841;SDS011;11587;47.064;15.444;2023-02-13T01:18:12;0.30;;;0.30;;
22841;SDS011;11587;47.064;15.444;2023-02-13T01:20:39;0.30;;;0.30;;
22841;SDS011;11587;47.064;15.444;2023-02-13T01:23:05;0.30;;;0.30;;
22841;SDS011;11587;47.064;15.444;2023-02-13T01:25:31;0.30;;;0.30;;
22841;SDS011;11587;47.064;15.444;2023-02-13T01:27:57;0.30;;;0.30;;
22841;SDS011;11587;47.064;15.444;2023-02-13T01:30:23;0.30;;;0.30;;
22841;SDS011;11587;47.064;15.444;2023-02-13T01:32:49;0.30;;;0.30;;
22841;SDS011;11587;47.064;15.444;2023-02-13T01:35:15;0.30;;;0.30;;
22841;SDS011;11587;47.064;15.444;2023-02-13T01:37:41;0.30;;;0.30;;
22841;SDS011;11587;47.064;15.444;2023-02-13T01:40:09;0.30;;;0.30;;
22841;SDS011;11587;47.064;15.444;2023-02-13T01:42:36;0.30;;;0.30;;
22841;SDS011;11587;47.064;15.444;2023-02-13T01:45:03;0.30;;;0.30;;
22841;SDS011;11587;47.064;15.444;2023-02-13T01:47:36;0.35;;;0.35;;
22841;SDS011;11587;47.064;15.444;2023-02-13T01:52:41;0.30;;;0.30;;
22841;SDS011;11587;47.064;15.444;2023-02-13T01:55:09;0.30;;;0.30;;
22841;SDS011;11587;47.064;15.444;2023-02-13T01:57:36;0.30;;;0.30;;
22841;SDS011;11587;47.064;15.444;2023-02-13T02:02:30;0.30;;;0.30;;
22841;SDS011;11587;47.064;15.444;2023-02-13T02:04:58;0.30;;;0.30;;
22841;SDS011;11587;47.064;15.444;2023-02-13T02:07:25;0.38;;;0.38;;
22841;SDS011;11587;47.064;15.444;2023-02-13T02:09:52;0.30;;;0.30;;
22841;SDS011;11587;47.064;15.444;2023-02-13T02:12:22;0.30;;;0.30;;
22841;SDS011;11587;47.064;15.444;2023-02-13T02:14:49;0.30;;;0.30;;
22841;SDS011;11587;47.064;15.444;2023-02-13T02:17:15;0.30;;;0.30;;
22841;SDS011;11587;47.064;15.444;2023-02-13T02:30:41;0.30;;;0.30;;
22841;SDS011;11587;47.064;15.444;2023-02-13T02:33:25;0.30;;;0.30;;
22841;SDS011;11587;47.064;15.444;2023-02-13T02:56:50;0.30;;;0.30;;
22841;SDS011;11587;47.064;15.444;2023-02-13T02:59:17;0.38;;;0.38;;
22841;SDS011;11587;47.064;15.444;2023-02-13T03:02:03;0.30;;;0.30;;
22841;SDS011;11587;47.064;15.444;2023-02-13T03:04:52;0.30;;;0.30;;
22841;SDS011;11587;47.064;15.444;2023-02-13T03:07:37;0.30;;;0.30;;
22841;SDS011;11587;47.064;15.444;2023-02-13T03:10:05;0.38;;;0.38;;
22841;SDS011;11587;47.064;15.444;2023-02-13T03:12:54;0.30;;;0.30;;
22841;SDS011;11587;47.064;15.444;2023-02-13T03:15:41;0.35;;;0.35;;
22841;SDS011;11587;47.064;15.444;2023-02-13T03:18:31;0.30;;;0.30;;
22841;SDS011;11587;47.064;15.444;2023-02-13T03:21:18;0.30;;;0.30;;
22841;SDS011;11587;47.064;15.444;2023-02-13T03:26:56;0.40;;;0.40;;
22841;SDS011;11587;47.064;15.444;2023-02-13T03:29:45;0.30;;;0.30;;
22841;SDS011;11587;47.064;15.444;2023-02-13T03:32:38;0.30;;;0.30;;
22841;SDS011;11587;47.064;15.444;2023-02-13T03:35:20;0.30;;;0.30;;
22841;SDS011;11587;47.064;15.444;2023-02-13T03:38:10;0.40;;;0.40;;
22841;SDS011;11587;47.064;15.444;2023-02-13T03:40:47;0.30;;;0.30;;
22841;SDS011;11587;47.064;15.444;2023-02-13T03:43:38;0.30;;;0.30;;
22841;SDS011;11587;47.064;15.444;2023-02-13T03:46:06;0.30;;;0.30;;
22841;SDS011;11587;47.064;15.444;2023-02-13T03:48:33;0.35;;;0.35;;
22841;SDS011;11587;47.064;15.444;2023-02-13T03:51:21;0.30;;;0.30;;
22841;SDS011;11587;47.064;15.444;2023-02-13T03:53:49;0.40;;;0.40;;
22841;SDS011;11587;47.064;15.444;2023-02-13T03:56:17;0.30;;;0.30;;
22841;SDS011;11587;47.064;15.444;2023-02-13T03:59:02;0.40;;;0.40;;
22841;SDS011;11587;47.064;15.444;2023-02-13T04:01:40;0.35;;;0.35;;
22841;SDS011;11587;47.064;15.444;2023-02-13T04:07:11;0.30;;;0.30;;
22841;SDS011;11587;47.064;15.444;2023-02-13T04:09:53;0.32;;;0.32;;
22841;SDS011;11587;47.064;15.444;2023-02-13T04:12:21;0.30;;;0.30;;
22841;SDS011;11587;47.064;15.444;2023-02-13T04:15:03;0.40;;;0.40;;
22841;SDS011;11587;47.064;15.444;2023-02-13T04:17:32;0.40;;;0.40;;
22841;SDS011;11587;47.064;15.444;2023-02-13T04:20:00;0.40;;;0.40;;
22841;SDS011;11587;47.064;15.444;2023-02-13T04:22:26;0.30;;;0.30;;
22841;SDS011;11587;47.064;15.444;2023-02-13T04:24:52;0.30;;;0.30;;
22841;SDS011;11587;47.064;15.444;2023-02-13T04:27:18;0.30;;;0.30;;
22841;SDS011;11587;47.064;15.444;2023-02-13T04:29:44;0.30;;;0.30;;
22841;SDS011;11587;47.064;15.444;2023-02-13T04:32:10;0.30;;;0.30;;
22841;SDS011;11587;47.064;15.444;2023-02-13T04:34:38;0.30;;;0.30;;
22841;SDS011;11587;47.064;15.444;2023-02-13T04:37:04;0.40;;;0.40;;
22841;SDS011;11587;47.064;15.444;2023-02-13T04:39:30;0.30;;;0.30;;
22841;SDS011;11587;47.064;15.444;2023-02-13T04:41:56;0.30;;;0.30;;
22841;SDS011;11587;47.064;15.444;2023-02-13T04:44:22;0.32;;;0.32;;
22841;SDS011;11587;47.064;15.444;2023-02-13T04:46:48;0.35;;;0.35;;
22841;SDS011;11587;47.064;15.444;2023-02-13T04:49:14;0.30;;;0.30;;
22841;SDS011;11587;47.064;15.444;2023-02-13T04:51:40;0.30;;;0.30;;
22841;SDS011;11587;47.064;15.444;2023-02-13T04:54:06;0.40;;;0.40;;
22841;SDS011;11587;47.064;15.444;2023-02-13T04:56:32;0.30;;;0.30;;
22841;SDS011;11587;47.064;15.444;2023-02-13T04:58:58;0.30;;;0.30;;
22841;SDS011;11587;47.064;15.444;2023-02-13T05:01:24;0.30;;;0.30;;
22841;SDS011;11587;47.064;15.444;2023-02-13T05:03:50;0.30;;;0.30;;
22841;SDS011;11587;47.064;15.444;2023-02-13T05:06:16;0.35;;;0.35;;
22841;SDS011;11587;47.064;15.444;2023-02-13T05:08:42;0.30;;;0.30;;
22841;SDS011;11587;47.064;15.444;2023-02-13T05:11:08;0.40;;;0.40;;
22841;SDS011;11587;47.064;15.444;2023-02-13T05:13:34;0.30;;;0.30;;
22841;SDS011;11587;47.064;15.444;2023-02-13T05:16:00;0.40;;;0.40;;
22841;SDS011;11587;47.064;15.444;2023-02-13T05:18:26;0.30;;;0.30;;
22841;SDS011;11587;47.064;15.444;2023-02-13T05:20:52;0.30;;;0.30;;
22841;SDS011;11587;47.064;15.444;2023-02-13T05:23:37;0.40;;;0.40;;
22841;SDS011;11587;47.064;15.444;2023-02-13T05:26:03;0.30;;;0.30;;
22841;SDS011;11587;47.064;15.444;2023-02-13T05:28:29;0.30;;;0.30;;
22841;SDS011;11587;47.064;15.444;2023-02-13T05:31:13;0.30;;;0.30;;
22841;SDS011;11587;47.064;15.444;2023-02-13T05:33:39;0.30;;;0.30;;
22841;SDS011;11587;47.064;15.444;2023-02-13T05:36:06;0.30;;;0.30;;
22841;SDS011;11587;47.064;15.444;2023-02-13T05:38:32;0.30;;;0.30;;
22841;SDS011;11587;47.064;15.444;2023-02-13T05:40:58;0.32;;;0.32;;
22841;SDS011;11587;47.064;15.444;2023-02-13T05:43:25;0.30;;;0.30;;
22841;SDS011;11587;47.064;15.444;2023-02-13T05:45:51;0.30;;;0.30;;
22841;SDS011;11587;47.064;15.444;2023-02-13T05:48:17;0.70;;;0.70;;
22841;SDS011;11587;47.064;15.444;2023-02-13T05:50:44;0.70;;;0.70;;
22841;SDS011;11587;47.064;15.444;2023-02-13T05:53:11;0.70;;;0.70;;
22841;SDS011;11587;47.064;15.444;2023-02-13T05:55:37;0.60;;;0.60;;
22841;SDS011;11587;47.064;15.444;2023-02-13T05:58:03;0.70;;;0.70;;
22841;SDS011;11587;47.064;15.444;2023-02-13T06:00:29;0.70;;;0.70;;
22841;SDS011;11587;47.064;15.444;2023-02-13T06:02:55;0.70;;;0.70;;
22841;SDS011;11587;47.064;15.444;2023-02-13T06:05:21;0.70;;;0.70;;
22841;SDS011;11587;47.064;15.444;2023-02-13T06:07:47;0.70;;;0.70;;
22841;SDS011;11587;47.064;15.444;2023-02-13T06:10:13;0.70;;;0.70;;
22841;SDS011;11587;47.064;15.444;2023-02-13T06:12:41;0.70;;;0.70;;
22841;SDS011;11587;47.064;15.444;2023-02-13T06:15:07;0.70;;;0.70;;
22841;SDS011;11587;47.064;15.444;2023-02-13T06:17:33;0.70;;;0.70;;
22841;SDS011;11587;47.064;15.444;2023-02-13T06:19:59;0.70;;;0.70;;
22841;SDS011;11587;47.064;15.444;2023-02-13T06:22:25;0.70;;;0.70;;
22841;SDS011;11587;47.064;15.444;2023-02-13T06:24:51;0.70;;;0.70;;
22841;SDS011;11587;47.064;15.444;2023-02-13T06:27:17;0.70;;;0.70;;
22841;SDS011;11587;47.064;15.444;2023-02-13T06:29:43;0.70;;;0.70;;
22841;SDS011;11587;47.064;15.444;2023-02-13T06:32:09;0.70;;;0.70;;
22841;SDS011;11587;47.064;15.444;2023-02-13T06:34:35;0.70;;;0.70;;
22841;SDS011;11587;47.064;15.444;2023-02-13T06:37:01;0.70;;;0.70;;
22841;SDS011;11587;47.064;15.444;2023-02-13T06:39:27;0.70;;;0.70;;
22841;SDS011;11587;47.064;15.444;2023-02-13T06:41:53;0.70;;;0.70;;
22841;SDS011;11587;47.064;15.444;2023-02-13T06:44:19;0.70;;;0.70;;
22841;SDS011;11587;47.064;15.444;2023-02-13T06:46:45;0.70;;;0.70;;
22841;SDS011;11587;47.064;15.444;2023-02-13T06:49:11;0.70;;;0.70;;
22841;SDS011;11587;47.064;15.444;2023-02-13T06:51:37;0.70;;;0.70;;
22841;SDS011;11587;47.064;15.444;2023-02-13T06:54:03;0.70;;;0.70;;
22841;SDS011;11587;47.064;15.444;2023-02-13T06:56:29;0.70;;;0.70;;
22841;SDS011;11587;47.064;15.444;2023-02-13T06:58:56;0.68;;;0.68;;
22841;SDS011;11587;47.064;15.444;2023-02-13T07:01:22;0.70;;;0.70;;
22841;SDS011;11587;47.064;15.444;2023-02-13T07:03:48;0.70;;;0.70;;
22841;SDS011;11587;47.064;15.444;2023-02-13T07:06:18;0.70;;;0.70;;
22841;SDS011;11587;47.064;15.444;2023-02-13T07:08:44;0.80;;;0.80;;
22841;SDS011;11587;47.064;15.444;2023-02-13T07:11:20;0.70;;;0.70;;
22841;SDS011;11587;47.064;15.444;2023-02-13T07:13:47;0.70;;;0.70;;
22841;SDS011;11587;47.064;15.444;2023-02-13T07:16:13;0.70;;;0.70;;
22841;SDS011;11587;47.064;15.444;2023-02-13T07:18:39;0.70;;;0.70;;
22841;SDS011;11587;47.064;15.444;2023-02-13T07:21:06;0.70;;;0.70;;
22841;SDS011;11587;47.064;15.444;2023-02-13T07:23:32;0.60;;;0.60;;
22841;SDS011;11587;47.064;15.444;2023-02-13T07:25:58;0.70;;;0.70;;
22841;SDS011;11587;47.064;15.444;2023-02-13T07:28:25;0.70;;;0.70;;
22841;SDS011;11587;47.064;15.444;2023-02-13T07:30:51;0.70;;;0.70;;
22841;SDS011;11587;47.064;15.444;2023-02-13T07:33:17;0.60;;;0.60;;
22841;SDS011;11587;47.064;15.444;2023-02-13T07:35:46;0.60;;;0.60;;
22841;SDS011;11587;47.064;15.444;2023-02-13T07:38:12;0.70;;;0.70;;
22841;SDS011;11587;47.064;15.444;2023-02-13T07:40:39;0.70;;;0.70;;
22841;SDS011;11587;47.064;15.444;2023-02-13T07:43:05;0.70;;;0.70;;
22841;SDS011;11587;47.064;15.444;2023-02-13T07:45:31;0.60;;;0.60;;
22841;SDS011;11587;47.064;15.444;2023-02-13T07:47:57;0.60;;;0.60;;
22841;SDS011;11587;47.064;15.444;2023-02-13T07:50:24;0.70;;;0.70;;
22841;SDS011;11587;47.064;15.444;2023-02-13T07:52:57;0.60;;;0.60;;
22841;SDS011;11587;47.064;15.444;2023-02-13T07:55:23;0.70;;;0.70;;
22841;SDS011;11587;47.064;15.444;2023-02-13T07:57:49;0.70;;;0.70;;
22841;SDS011;11587;47.064;15.444;2023-02-13T08:00:16;0.60;;;0.60;;
22841;SDS011;11587;47.064;15.444;2023-02-13T08:02:42;0.60;;;0.60;;
22841;SDS011;11587;47.064;15.444;2023-02-13T08:05:09;0.60;;;0.60;;
22841;SDS011;11587;47.064;15.444;2023-02-13T08:07:35;0.60;;;0.60;;
22841;SDS011;11587;47.064;15.444;2023-02-13T08:10:01;0.60;;;0.60;;
22841;SDS011;11587;47.064;15.444;2023-02-13T08:12:46;0.60;;;0.60;;
22841;SDS011;11587;47.064;15.444;2023-02-13T08:15:13;0.60;;;0.60;;
22841;SDS011;11587;47.064;15.444;2023-02-13T08:17:39;0.60;;;0.60;;
22841;SDS011;11587;47.064;15.444;2023-02-13T08:20:05;0.60;;;0.60;;
22841;SDS011;11587;47.064;15.444;2023-02-13T08:22:35;0.60;;;0.60;;
22841;SDS011;11587;47.064;15.444;2023-02-13T08:25:01;0.57;;;0.57;;
22841;SDS011;11587;47.064;15.444;2023-02-13T08:27:27;0.60;;;0.60;;
22841;SDS011;11587;47.064;15.444;2023-02-13T08:29:54;0.60;;;0.60;;
22841;SDS011;11587;47.064;15.444;2023-02-13T08:32:20;0.60;;;0.60;;
22841;SDS011;11587;47.064;15.444;2023-02-13T08:34:46;0.60;;;0.60;;
22841;SDS011;11587;47.064;15.444;2023-02-13T08:37:12;0.60;;;0.60;;
22841;SDS011;11587;47.064;15.444;2023-02-13T08:39:38;0.60;;;0.60;;
22841;SDS011;11587;47.064;15.444;2023-02-13T08:42:04;0.60;;;0.60;;
22841;SDS011;11587;47.064;15.444;2023-02-13T08:44:30;0.60;;;0.60;;
22841;SDS011;11587;47.064;15.444;2023-02-13T08:46:56;0.30;;;0.30;;
22841;SDS011;11587;47.064;15.444;2023-02-13T08:49:22;0.30;;;0.30;;
22841;SDS011;11587;47.064;15.444;2023-02-13T08:51:49;0.30;;;0.30;;
22841;SDS011;11587;47.064;15.444;2023-02-13T08:54:15;0.30;;;0.30;;
22841;SDS011;11587;47.064;15.444;2023-02-13T08:56:41;0.30;;;0.30;;
22841;SDS011;11587;47.064;15.444;2023-02-13T08:59:08;0.30;;;0.30;;
22841;SDS011;11587;47.064;15.444;2023-02-13T09:01:34;0.30;;;0.30;;
22841;SDS011;11587;47.064;15.444;2023-02-13T09:04:00;0.30;;;0.30;;
22841;SDS011;11587;47.064;15.444;2023-02-13T09:06:26;0.30;;;0.30;;
22841;SDS011;11587;47.064;15.444;2023-02-13T09:08:52;0.30;;;0.30;;
22841;SDS011;11587;47.064;15.444;2023-02-13T09:11:18;0.30;;;0.30;;
22841;SDS011;11587;47.064;15.444;2023-02-13T09:13:47;0.30;;;0.30;;
22841;SDS011;11587;47.064;15.444;2023-02-13T09:16:13;0.30;;;0.30;;
22841;SDS011;11587;47.064;15.444;2023-02-13T09:18:39;0.30;;;0.30;;
22841;SDS011;11587;47.064;15.444;2023-02-13T09:21:06;0.30;;;0.30;;
22841;SDS011;11587;47.064;15.444;2023-02-13T09:23:34;0.30;;;0.30;;
22841;SDS011;11587;47.064;15.444;2023-02-13T09:26:04;0.20;;;0.20;;
22841;SDS011;11587;47.064;15.444;2023-02-13T09:28:31;0.30;;;0.30;;
22841;SDS011;11587;47.064;15.444;2023-02-13T09:30:57;0.28;;;0.28;;
22841;SDS011;11587;47.064;15.444;2023-02-13T09:33:23;0.20;;;0.20;;
22841;SDS011;11587;47.064;15.444;2023-02-13T09:35:50;0.20;;;0.20;;
22841;SDS011;11587;47.064;15.444;2023-02-13T09:38:16;0.30;;;0.30;;
22841;SDS011;11587;47.064;15.444;2023-02-13T09:43:16;0.30;;;0.30;;
22841;SDS011;11587;47.064;15.444;2023-02-13T09:45:44;0.30;;;0.30;;
22841;SDS011;11587;47.064;15.444;2023-02-13T09:48:18;0.30;;;0.30;;
22841;SDS011;11587;47.064;15.444;2023-02-13T09:50:47;0.20;;;0.20;;
22841;SDS011;11587;47.064;15.444;2023-02-13T09:53:16;0.25;;;0.25;;
22841;SDS011;11587;47.064;15.444;2023-02-13T09:55:46;0.20;;;0.20;;
22841;SDS011;11587;47.064;15.444;2023-02-13T10:00:53;0.22;;;0.22;;
22841;SDS011;11587;47.064;15.444;2023-02-13T10:03:27;0.20;;;0.20;;
22841;SDS011;11587;47.064;15.444;2023-02-13T10:08:30;0.20;;;0.20;;
22841;SDS011;11587;47.064;15.444;2023-02-13T10:16:23;0.30;;;0.30;;
22841;SDS011;11587;47.064;15.444;2023-02-13T10:18:53;0.20;;;0.20;;
22841;SDS011;11587;47.064;15.444;2023-02-13T10:21:21;0.20;;;0.20;;
22841;SDS011;11587;47.064;15.444;2023-02-13T10:23:52;0.20;;;0.20;;
22841;SDS011;11587;47.064;15.444;2023-02-13T10:26:20;0.20;;;0.20;;
22841;SDS011;11587;47.064;15.444;2023-02-13T10:31:37;0.20;;;0.20;;
22841;SDS011;11587;47.064;15.444;2023-02-13T10:34:03;0.20;;;0.20;;
22841;SDS011;11587;47.064;15.444;2023-02-13T10:36:34;0.20;;;0.20;;
22841;SDS011;11587;47.064;15.444;2023-02-13T10:49:04;0.20;;;0.20;;
22841;SDS011;11587;47.064;15.444;2023-02-13T10:51:39;0.20;;;0.20;;
22841;SDS011;11587;47.064;15.444;2023-02-13T10:57:03;0.28;;;0.28;;
22841;SDS011;11587;47.064;15.444;2023-02-13T10:59:46;0.20;;;0.20;;
22841;SDS011;11587;47.064;15.444;2023-02-13T11:04:42;0.20;;;0.20;;
22841;SDS011;11587;47.064;15.444;2023-02-13T11:07:10;0.10;;;0.10;;
22841;SDS011;11587;47.064;15.444;2023-02-13T11:09:39;0.10;;;0.10;;
22841;SDS011;11587;47.064;15.444;2023-02-13T11:14:54;0.00;;;0.00;;
22841;SDS011;11587;47.064;15.444;2023-02-13T11:17:20;0.00;;;0.00;;
22841;SDS011;11587;47.064;15.444;2023-02-13T11:19:51;0.00;;;0.00;;
22841;SDS011;11587;47.064;15.444;2023-02-13T11:22:32;0.00;;;0.00;;
22841;SDS011;11587;47.064;15.444;2023-02-13T11:25:20;0.00;;;0.00;;
22841;SDS011;11587;47.064;15.444;2023-02-13T11:27:44;0.00;;;0.00;;
22841;SDS011;11587;47.064;15.444;2023-02-13T11:32:57;0.00;;;0.00;;
22841;SDS011;11587;47.064;15.444;2023-02-13T11:35:28;0.00;;;0.00;;
22841;SDS011;11587;47.064;15.444;2023-02-13T11:40:35;0.00;;;0.00;;
22841;SDS011;11587;47.064;15.444;2023-02-13T11:43:04;0.00;;;0.00;;
22841;SDS011;11587;47.064;15.444;2023-02-13T11:45:31;0.00;;;0.00;;
22841;SDS011;11587;47.064;15.444;2023-02-13T11:47:57;0.00;;;0.00;;
22841;SDS011;11587;47.064;15.444;2023-02-13T11:50:33;0.00;;;0.00;;
22841;SDS011;11587;47.064;15.444;2023-02-13T12:06:00;0.00;;;0.00;;
22841;SDS011;11587;47.064;15.444;2023-02-13T12:08:28;0.00;;;0.00;;
22841;SDS011;11587;47.064;15.444;2023-02-13T12:10:54;0.00;;;0.00;;
22841;SDS011;11587;47.064;15.444;2023-02-13T12:13:37;0.00;;;0.00;;
22841;SDS011;11587;47.064;15.444;2023-02-13T12:16:27;0.00;;;0.00;;
22841;SDS011;11587;47.064;15.444;2023-02-13T12:18:50;0.00;;;0.00;;
22841;SDS011;11587;47.064;15.444;2023-02-13T12:24:15;0.00;;;0.00;;
22841;SDS011;11587;47.064;15.444;2023-02-13T12:34:43;0.00;;;0.00;;
22841;SDS011;11587;47.064;15.444;2023-02-13T12:39:58;0.00;;;0.00;;
22841;SDS011;11587;47.064;15.444;2023-02-13T12:42:35;0.00;;;0.00;;
22841;SDS011;11587;47.064;15.444;2023-02-13T12:45:12;0.00;;;0.00;;
22841;SDS011;11587;47.064;15.444;2023-02-13T12:52:51;0.00;;;0.00;;
22841;SDS011;11587;47.064;15.444;2023-02-13T12:57:55;0.00;;;0.00;;
22841;SDS011;11587;47.064;15.444;2023-02-13T13:23:32;0.00;;;0.00;;
22841;SDS011;11587;47.064;15.444;2023-02-13T13:26:10;0.00;;;0.00;;
22841;SDS011;11587;47.064;15.444;2023-02-13T13:28:42;0.00;;;0.00;;
22841;SDS011;11587;47.064;15.444;2023-02-13T13:31:09;0.00;;;0.00;;
22841;SDS011;11587;47.064;15.444;2023-02-13T13:33:38;0.00;;;0.00;;
22841;SDS011;11587;47.064;15.444;2023-02-13T13:44:01;0.00;;;0.00;;
22841;SDS011;11587;47.064;15.444;2023-02-13T13:51:41;0.10;;;0.10;;
22841;SDS011;11587;47.064;15.444;2023-02-13T13:54:16;0.10;;;0.10;;
22841;SDS011;11587;47.064;15.444;2023-02-13T14:00:22;0.10;;;0.10;;
22841;SDS011;11587;47.064;15.444;2023-02-13T14:02:46;0.10;;;0.10;;
22841;SDS011;11587;47.064;15.444;2023-02-13T14:05:14;0.10;;;0.10;;
22841;SDS011;11587;47.064;15.444;2023-02-13T14:07:42;0.10;;;0.10;;
22841;SDS011;11587;47.064;15.444;2023-02-13T14:20:41;0.10;;;0.10;;
22841;SDS011;11587;47.064;15.444;2023-02-13T14:26:08;0.20;;;0.20;;
22841;SDS011;11587;47.064;15.444;2023-02-13T14:28:35;0.20;;;0.20;;
22841;SDS011;11587;47.064;15.444;2023-02-13T14:31:04;0.20;;;0.20;;
22841;SDS011;11587;47.064;15.444;2023-02-13T14:33:31;0.13;;;0.13;;
22841;SDS011;11587;47.064;15.444;2023-02-13T14:35:59;0.10;;;0.10;;
22841;SDS011;11587;47.064;15.444;2023-02-13T14:38:26;0.20;;;0.20;;
22841;SDS011;11587;47.064;15.444;2023-02-13T14:40:53;0.20;;;0.20;;
22841;SDS011;11587;47.064;15.444;2023-02-13T14:43:28;0.10;;;0.10;;
22841;SDS011;11587;47.064;15.444;2023-02-13T14:48:35;0.10;;;0.10;;
22841;SDS011;11587;47.064;15.444;2023-02-13T14:51:02;0.20;;;0.20;;
22841;SDS011;11587;47.064;15.444;2023-02-13T14:53:29;0.20;;;0.20;;
22841;SDS011;11587;47.064;15.444;2023-02-13T14:55:57;0.10;;;0.10;;
22841;SDS011;11587;47.064;15.444;2023-02-13T14:58:28;0.20;;;0.20;;
22841;SDS011;11587;47.064;15.444;2023-02-13T15:03:31;0.20;;;0.20;;
22841;SDS011;11587;47.064;15.444;2023-02-13T15:06:03;0.15;;;0.15;;
22841;SDS011;11587;47.064;15.444;2023-02-13T15:08:31;0.10;;;0.10;;
22841;SDS011;11587;47.064;15.444;2023-02-13T15:10:59;0.20;;;0.20;;
22841;SDS011;11587;47.064;15.444;2023-02-13T15:13:30;0.20;;;0.20;;
22841;SDS011;11587;47.064;15.444;2023-02-13T15:18:24;0.20;;;0.20;;
22841;SDS011;11587;47.064;15.444;2023-02-13T15:20:52;0.20;;;0.20;;
22841;SDS011;11587;47.064;15.444;2023-02-13T15:23:19;0.20;;;0.20;;
22841;SDS011;11587;47.064;15.444;2023-02-13T15:25:46;0.20;;;0.20;;
22841;SDS011;11587;47.064;15.444;2023-02-13T15:28:18;0.20;;;0.20;;
22841;SDS011;11587;47.064;15.444;2023-02-13T15:31:01;0.20;;;0.20;;
22841;SDS011;11587;47.064;15.444;2023-02-13T15:33:31;0.20;;;0.20;;
22841;SDS011;11587;47.064;15.444;2023-02-13T15:35:59;0.10;;;0.10;;
22841;SDS011;11587;47.064;15.444;2023-02-13T15:38:35;0.20;;;0.20;;
22841;SDS011;11587;47.064;15.444;2023-02-13T15:43:35;0.10;;;0.10;;
22841;SDS011;11587;47.064;15.444;2023-02-13T15:46:04;0.20;;;0.20;;
22841;SDS011;11587;47.064;15.444;2023-02-13T15:48:32;0.20;;;0.20;;
22841;SDS011;11587;47.064;15.444;2023-02-13T15:50:59;0.20;;;0.20;;
22841;SDS011;11587;47.064;15.444;2023-02-13T15:53:26;0.20;;;0.20;;
22841;SDS011;11587;47.064;15.444;2023-02-13T15:55:58;0.20;;;0.20;;
22841;SDS011;11587;47.064;15.444;2023-02-13T15:58:25;0.20;;;0.20;;
22841;SDS011;11587;47.064;15.444;2023-02-13T16:00:54;0.20;;;0.20;;
22841;SDS011;11587;47.064;15.444;2023-02-13T16:03:20;0.20;;;0.20;;
22841;SDS011;11587;47.064;15.444;2023-02-13T16:05:47;0.20;;;0.20;;
22841;SDS011;11587;47.064;15.444;2023-02-13T16:08:30;0.20;;;0.20;;
22841;SDS011;11587;47.064;15.444;2023-02-13T16:13:35;0.20;;;0.20;;
22841;SDS011;11587;47.064;15.444;2023-02-13T16:16:02;0.20;;;0.20;;
22841;SDS011;11587;47.064;15.444;2023-02-13T16:18:33;0.20;;;0.20;;
22841;SDS011;11587;47.064;15.444;2023-02-13T16:20:59;0.20;;;0.20;;
22841;SDS011;11587;47.064;15.444;2023-02-13T16:23:28;0.20;;;0.20;;
22841;SDS011;11587;47.064;15.444;2023-02-13T16:25:59;0.20;;;0.20;;
22841;SDS011;11587;47.064;15.444;2023-02-13T16:28:26;0.20;;;0.20;;
22841;SDS011;11587;47.064;15.444;2023-02-13T16:30:57;0.20;;;0.20;;
22841;SDS011;11587;47.064;15.444;2023-02-13T16:33:30;0.20;;;0.20;;
22841;SDS011;11587;47.064;15.444;2023-02-13T16:36:16;0.20;;;0.20;;
22841;SDS011;11587;47.064;15.444;2023-02-13T16:38:46;0.20;;;0.20;;
22841;SDS011;11587;47.064;15.444;2023-02-13T16:44:01;0.28;;;0.28;;
22841;SDS011;11587;47.064;15.444;2023-02-13T16:53:58;0.20;;;0.20;;
22841;SDS011;11587;47.064;15.444;2023-02-13T16:56:26;0.20;;;0.20;;
22841;SDS011;11587;47.064;15.444;2023-02-13T17:01:37;0.20;;;0.20;;
22841;SDS011;11587;47.064;15.444;2023-02-13T17:04:20;0.20;;;0.20;;
22841;SDS011;11587;47.064;15.444;2023-02-13T17:06:47;0.20;;;0.20;;
22841;SDS011;11587;47.064;15.444;2023-02-13T17:09:13;0.40;;;0.40;;
22841;SDS011;11587;47.064;15.444;2023-02-13T17:11:40;0.50;;;0.50;;
22841;SDS011;11587;47.064;15.444;2023-02-13T17:14:06;0.40;;;0.40;;
22841;SDS011;11587;47.064;15.444;2023-02-13T17:16:32;0.40;;;0.40;;
22841;SDS011;11587;47.064;15.444;2023-02-13T17:18:58;0.40;;;0.40;;
22841;SDS011;11587;47.064;15.444;2023-02-13T17:21:24;0.40;;;0.40;;
22841;SDS011;11587;47.064;15.444;2023-02-13T17:23:51;0.40;;;0.40;;
22841;SDS011;11587;47.064;15.444;2023-02-13T17:26:17;0.40;;;0.40;;
22841;SDS011;11587;47.064;15.444;2023-02-13T17:28:43;0.40;;;0.40;;
22841;SDS011;11587;47.064;15.444;2023-02-13T17:31:09;0.40;;;0.40;;
22841;SDS011;11587;47.064;15.444;2023-02-13T17:33:37;0.40;;;0.40;;
22841;SDS011;11587;47.064;15.444;2023-02-13T17:36:05;0.40;;;0.40;;
22841;SDS011;11587;47.064;15.444;2023-02-13T17:38:31;0.50;;;0.50;;
22841;SDS011;11587;47.064;15.444;2023-02-13T17:40:58;0.40;;;0.40;;
22841;SDS011;11587;47.064;15.444;2023-02-13T17:43:24;0.40;;;0.40;;
22841;SDS011;11587;47.064;15.444;2023-02-13T17:45:52;0.40;;;0.40;;
22841;SDS011;11587;47.064;15.444;2023-02-13T17:48:18;0.40;;;0.40;;
22841;SDS011;11587;47.064;15.444;2023-02-13T17:50:45;0.40;;;0.40;;
22841;SDS011;11587;47.064;15.444;2023-02-13T17:53:32;0.40;;;0.40;;
22841;SDS011;11587;47.064;15.444;2023-02-13T17:55:58;0.50;;;0.50;;
22841;SDS011;11587;47.064;15.444;2023-02-13T17:58:24;0.40;;;0.40;;